Terminal Aerodrome Forecast
Issued by NWS

Home | Current Version | Previous Version | Text Only | Print | Product List | Glossary On
Versions: 1 2 3 4 5 6 7 8 9 10 11 12 13
385
FTUS46 KMTR 231120
TAFMRY
TAF
KMRY 231120Z 2312/2412 28010KT P6SM SCT020 OVC040
      TEMPO 2312/2316 BKN025
     FM231600 27008KT P6SM FEW020
     FM232100 26012KT P6SM FEW020 SCT120
     FM240300 VRB04KT P6SM BKN080 OVC150
     FM241000 14005KT P6SM VCSH BKN050 OVC080=

USA.gov is the U.S. government's official web portal to all federal, state and local government web resources and services.